createdAt,value
2023-04-21T00:00:20.557Z,34.88
2023-04-21T00:01:20.595Z,34.85
2023-04-21T00:02:20.710Z,34.76
2023-04-21T00:03:20.843Z,34.74
2023-04-21T00:04:20.859Z,34.72
2023-04-21T00:05:20.939Z,34.70
2023-04-21T00:06:20.847Z,34.68
2023-04-21T00:07:20.863Z,34.68
2023-04-21T00:08:20.892Z,34.67
2023-04-21T00:09:21.109Z,34.64
2023-04-21T00:10:20.932Z,34.63
2023-04-21T00:11:20.989Z,34.62
2023-04-21T00:12:20.977Z,34.62
2023-04-21T00:13:21.002Z,34.61
2023-04-21T00:14:20.971Z,34.60
2023-04-21T00:15:21.017Z,34.61
2023-04-21T00:16:20.992Z,34.59
2023-04-21T00:17:20.955Z,34.61
2023-04-21T00:18:20.981Z,34.55
2023-04-21T00:19:21.272Z,34.56
2023-04-21T00:20:21.021Z,34.56
2023-04-21T00:21:21.017Z,34.55
2023-04-21T00:22:20.992Z,34.57
2023-04-21T00:23:20.987Z,34.57
2023-04-21T00:24:21.007Z,34.55
2023-04-21T00:25:21.005Z,34.56
2023-04-21T00:26:21.070Z,34.53
2023-04-21T00:27:21.141Z,34.53
2023-04-21T00:28:21.182Z,34.53
2023-04-21T00:29:21.535Z,34.53
2023-04-21T00:30:21.187Z,34.53
2023-04-21T00:31:21.200Z,34.53
2023-04-21T00:32:21.229Z,34.51
2023-04-21T00:33:21.186Z,34.53
2023-04-21T00:34:21.196Z,34.52
2023-04-21T00:35:21.182Z,34.51
2023-04-21T00:36:21.190Z,34.53
2023-04-21T00:37:21.178Z,34.53
2023-04-21T00:38:21.174Z,34.51
2023-04-21T00:39:21.383Z,34.51
2023-04-21T00:40:21.137Z,34.50
2023-04-21T00:41:21.175Z,34.51
2023-04-21T00:42:21.152Z,34.49
2023-04-21T00:43:21.118Z,34.50
2023-04-21T00:44:21.106Z,34.46
2023-04-21T00:45:21.118Z,34.47
2023-04-21T00:46:21.154Z,34.47
2023-04-21T00:47:21.169Z,34.44
2023-04-21T00:48:21.150Z,34.47
2023-04-21T00:49:21.213Z,34.45
2023-04-21T00:50:21.145Z,34.44
2023-04-21T00:51:21.247Z,34.47
2023-04-21T00:52:21.134Z,34.46
2023-04-21T00:53:21.127Z,34.45
2023-04-21T00:54:21.126Z,34.48
2023-04-21T00:55:21.154Z,34.48
2023-04-21T00:56:21.157Z,34.46
2023-04-21T00:57:21.193Z,34.45
2023-04-21T00:58:21.167Z,34.47
2023-04-21T00:59:21.428Z,34.46
2023-04-21T01:00:21.167Z,34.45
2023-04-21T01:01:21.312Z,34.46
2023-04-21T01:02:21.270Z,34.39
2023-04-21T01:03:21.331Z,34.43
2023-04-21T01:04:21.227Z,34.42
2023-04-21T01:05:21.179Z,34.43
2023-04-21T01:06:21.191Z,34.42
2023-04-21T01:07:21.157Z,34.40
2023-04-21T01:08:21.163Z,34.41
2023-04-21T01:09:21.406Z,34.39
2023-04-21T01:10:21.159Z,34.41
2023-04-21T01:11:21.223Z,34.40
2023-04-21T01:12:21.153Z,34.41
2023-04-21T01:13:21.150Z,34.40
2023-04-21T01:14:21.172Z,34.40
2023-04-21T01:15:21.180Z,34.37
2023-04-21T01:16:21.220Z,34.38
2023-04-21T01:17:21.207Z,34.38
2023-04-21T01:18:21.214Z,34.37
2023-04-21T01:19:21.282Z,34.36
2023-04-21T01:20:21.195Z,34.34
2023-04-21T01:21:21.250Z,34.35
2023-04-21T01:22:21.197Z,34.36
2023-04-21T01:23:21.212Z,34.36
2023-04-21T01:24:21.195Z,34.35
2023-04-21T01:25:21.208Z,34.36
2023-04-21T01:26:21.275Z,34.36
2023-04-21T01:27:21.232Z,34.33
2023-04-21T01:28:21.193Z,34.33
2023-04-21T01:29:21.266Z,34.31
2023-04-21T01:30:21.217Z,34.33
2023-04-21T01:31:21.227Z,34.32
2023-04-21T01:32:21.232Z,34.34
2023-04-21T01:33:21.197Z,34.33
2023-04-21T01:34:21.207Z,34.34
2023-04-21T01:35:21.154Z,34.33
2023-04-21T01:36:21.141Z,34.33
2023-04-21T01:37:21.123Z,34.33
2023-04-21T01:38:21.110Z,34.32
2023-04-21T01:39:21.379Z,34.32
2023-04-21T01:40:21.101Z,34.32
2023-04-21T01:41:21.088Z,34.30
2023-04-21T01:42:21.085Z,34.31
2023-04-21T01:43:21.059Z,34.32
2023-04-21T01:44:21.068Z,34.30
2023-04-21T01:45:21.035Z,34.30
2023-04-21T01:46:21.124Z,34.30
2023-04-21T01:47:21.027Z,34.30
2023-04-21T01:48:21.030Z,34.28
2023-04-21T01:49:21.144Z,34.26
2023-04-21T01:50:21.007Z,34.29
2023-04-21T01:51:21.078Z,34.28
2023-04-21T01:52:21.047Z,34.27
2023-04-21T01:53:21.047Z,34.30
2023-04-21T01:54:21.033Z,34.26
2023-04-21T01:55:21.009Z,34.28
2023-04-21T01:56:21.066Z,34.28
2023-04-21T01:57:21.041Z,34.27
2023-04-21T01:58:21.029Z,34.27
2023-04-21T01:59:21.252Z,34.27
2023-04-21T02:00:21.025Z,34.25
2023-04-21T02:01:21.067Z,34.27
2023-04-21T02:02:21.103Z,34.27
2023-04-21T02:03:21.271Z,34.25
2023-04-21T02:04:21.155Z,34.25
2023-04-21T02:05:21.024Z,34.24
2023-04-21T02:06:21.046Z,34.23
2023-04-21T02:07:21.037Z,34.22
2023-04-21T02:08:21.066Z,34.23
2023-04-21T02:09:21.195Z,34.23
2023-04-21T02:10:21.070Z,34.22
2023-04-21T02:11:21.140Z,34.22
2023-04-21T02:12:21.120Z,34.22
2023-04-21T02:13:21.109Z,34.22
2023-04-21T02:14:21.101Z,34.22
2023-04-21T02:15:21.094Z,34.22
2023-04-21T02:16:21.241Z,34.21
2023-04-21T02:17:21.120Z,34.19
2023-04-21T02:18:21.121Z,34.20
2023-04-21T02:19:21.351Z,34.21
2023-04-21T02:20:21.156Z,34.21
2023-04-21T02:21:21.219Z,34.23
2023-04-21T02:22:21.147Z,34.21
2023-04-21T02:23:21.160Z,34.20
2023-04-21T02:24:21.121Z,34.20
2023-04-21T02:25:21.122Z,34.19
2023-04-21T02:26:21.168Z,34.20
2023-04-21T02:27:21.130Z,34.18
2023-04-21T02:28:21.109Z,34.19
2023-04-21T02:29:21.356Z,34.20
2023-04-21T02:30:21.101Z,34.20
2023-04-21T02:31:21.182Z,34.18
2023-04-21T02:32:25.847Z,34.17
2023-04-21T02:33:21.116Z,34.22
2023-04-21T02:34:21.072Z,34.22
2023-04-21T02:35:21.044Z,34.19
2023-04-21T02:36:21.061Z,34.19
2023-04-21T02:37:21.079Z,34.19
2023-04-21T02:38:21.019Z,34.18
2023-04-21T02:39:21.153Z,34.16
2023-04-21T02:40:20.998Z,34.16
2023-04-21T02:41:21.032Z,34.16
2023-04-21T02:42:20.983Z,34.16
2023-04-21T02:43:20.980Z,34.17
2023-04-21T02:44:20.988Z,34.15
2023-04-21T02:45:20.987Z,34.17
2023-04-21T02:46:21.018Z,34.17
2023-04-21T02:47:20.992Z,34.14
2023-04-21T02:48:20.956Z,34.14
2023-04-21T02:49:21.184Z,34.14
2023-04-21T02:50:20.944Z,34.15
2023-04-21T02:51:20.945Z,34.13
2023-04-21T02:52:20.933Z,34.12
2023-04-21T02:53:20.972Z,34.12
2023-04-21T02:54:20.887Z,34.11
2023-04-21T02:55:20.875Z,34.13
2023-04-21T02:56:20.886Z,34.11
2023-04-21T02:57:20.865Z,34.13
2023-04-21T02:58:20.844Z,34.12
2023-04-21T02:59:21.002Z,34.11
2023-04-21T03:00:20.822Z,34.10
2023-04-21T03:01:20.937Z,34.10
2023-04-21T03:02:20.813Z,34.10
2023-04-21T03:03:20.968Z,34.09
2023-04-21T03:04:20.885Z,34.10
2023-04-21T03:05:20.761Z,34.10
2023-04-21T03:06:20.754Z,34.07
2023-04-21T03:07:20.749Z,34.08
2023-04-21T03:08:20.743Z,34.06
2023-04-21T03:09:20.907Z,34.07
2023-04-21T03:10:20.741Z,34.08
2023-04-21T03:11:20.721Z,34.08
2023-04-21T03:12:20.726Z,34.06
2023-04-21T03:13:20.717Z,34.10
2023-04-21T03:14:20.725Z,34.10
2023-04-21T03:15:20.685Z,34.06
2023-04-21T03:16:20.726Z,34.05
2023-04-21T03:17:20.667Z,34.04
2023-04-21T03:18:20.626Z,34.04
2023-04-21T03:19:20.786Z,34.02
2023-04-21T03:20:20.606Z,34.02
2023-04-21T03:21:20.625Z,34.02
2023-04-21T03:22:20.577Z,34.01
2023-04-21T03:23:20.586Z,33.99
2023-04-21T03:24:20.640Z,33.99
2023-04-21T03:25:20.574Z,34.00
2023-04-21T03:26:20.559Z,33.99
2023-04-21T03:27:20.539Z,33.99
2023-04-21T03:28:20.529Z,33.97
2023-04-21T03:29:20.737Z,33.97
2023-04-21T03:30:20.516Z,34.00
2023-04-21T03:31:20.573Z,33.98
2023-04-21T03:32:20.685Z,33.96
2023-04-21T03:33:20.510Z,34.01
2023-04-21T03:34:20.479Z,33.99
2023-04-21T03:35:20.468Z,33.98
2023-04-21T03:36:20.479Z,33.96
2023-04-21T03:37:20.454Z,33.96
2023-04-21T03:38:20.435Z,33.96
2023-04-21T03:39:20.787Z,33.96
2023-04-21T03:40:20.422Z,33.98
2023-04-21T03:41:20.440Z,33.96
2023-04-21T03:42:20.384Z,33.95
2023-04-21T03:43:20.370Z,33.95
2023-04-21T03:44:20.374Z,33.96
2023-04-21T03:45:20.362Z,33.95
2023-04-21T03:46:20.410Z,33.95
2023-04-21T03:47:20.380Z,33.95
2023-04-21T03:48:20.339Z,33.93
2023-04-21T03:49:20.554Z,33.94
2023-04-21T03:50:20.302Z,33.94
2023-04-21T03:51:20.326Z,33.94
2023-04-21T03:52:20.303Z,33.93
2023-04-21T03:53:20.342Z,33.93
2023-04-21T03:54:20.324Z,33.92
2023-04-21T03:55:20.340Z,33.92
2023-04-21T03:56:20.363Z,33.91
2023-04-21T03:57:20.382Z,33.89
2023-04-21T03:58:20.324Z,33.91
2023-04-21T03:59:20.618Z,33.88
2023-04-21T04:00:20.336Z,33.87
2023-04-21T04:01:20.355Z,33.86
2023-04-21T04:02:20.405Z,33.87
2023-04-21T04:03:22.679Z,33.89
2023-04-21T04:04:20.549Z,33.86
2023-04-21T04:05:20.349Z,33.87
2023-04-21T04:06:20.342Z,33.85
2023-04-21T04:07:20.268Z,33.84
2023-04-21T04:08:20.245Z,33.85
2023-04-21T04:09:20.587Z,33.84
2023-04-21T04:10:20.191Z,33.85
2023-04-21T04:11:20.172Z,33.84
2023-04-21T04:12:20.169Z,33.83
2023-04-21T04:13:20.185Z,33.85
2023-04-21T04:14:20.150Z,33.83
2023-04-21T04:15:20.132Z,33.84
2023-04-21T04:16:20.187Z,33.84
2023-04-21T04:17:20.113Z,33.83
2023-04-21T04:18:20.100Z,33.84
2023-04-21T04:19:20.331Z,33.83
2023-04-21T04:20:20.095Z,33.83
2023-04-21T04:21:20.084Z,33.82
2023-04-21T04:22:20.086Z,33.81
2023-04-21T04:23:20.072Z,33.80
2023-04-21T04:24:20.082Z,33.79
2023-04-21T04:25:20.069Z,33.82
2023-04-21T04:26:20.055Z,33.80
2023-04-21T04:27:20.030Z,33.79
2023-04-21T04:28:20.057Z,33.78
2023-04-21T04:29:20.196Z,33.79
2023-04-21T04:30:19.990Z,33.78
2023-04-21T04:31:20.052Z,33.78
2023-04-21T04:32:19.972Z,33.75
2023-04-21T04:33:20.005Z,33.77
2023-04-21T04:34:19.947Z,33.78
2023-04-21T04:35:19.931Z,33.75
2023-04-21T04:36:19.916Z,33.76
2023-04-21T04:37:19.910Z,33.75
2023-04-21T04:38:19.898Z,33.75
2023-04-21T04:39:20.141Z,33.77
2023-04-21T04:40:19.869Z,33.76
2023-04-21T04:41:19.851Z,33.78
2023-04-21T04:42:19.826Z,33.74
2023-04-21T04:43:19.811Z,33.75
2023-04-21T04:44:20.055Z,33.72
2023-04-21T04:45:19.809Z,33.74
2023-04-21T04:46:19.789Z,33.71
2023-04-21T04:47:19.806Z,33.72
2023-04-21T04:48:19.760Z,33.71
2023-04-21T04:49:20.221Z,33.72
2023-04-21T04:50:19.745Z,33.71
2023-04-21T04:51:19.752Z,33.74
2023-04-21T04:52:19.713Z,33.71
2023-04-21T04:53:19.729Z,33.72
2023-04-21T04:54:19.861Z,33.71
2023-04-21T04:55:19.717Z,33.70
2023-04-21T04:56:19.736Z,33.70
2023-04-21T04:57:19.787Z,33.69
2023-04-21T04:58:19.820Z,33.69
2023-04-21T04:59:19.856Z,33.70
2023-04-21T05:00:19.895Z,33.67
2023-04-21T05:01:20.033Z,33.68
2023-04-21T05:02:20.121Z,33.68
2023-04-21T05:03:20.186Z,33.67
2023-04-21T05:04:20.538Z,33.65
2023-04-21T05:05:19.938Z,33.65
2023-04-21T05:06:19.962Z,33.64
2023-04-21T05:07:20.188Z,33.66
2023-04-21T05:08:20.007Z,33.64
2023-04-21T05:09:20.015Z,33.62
2023-04-21T05:10:20.673Z,33.63
2023-04-21T05:11:20.005Z,33.64
2023-04-21T05:12:20.023Z,33.64
2023-04-21T05:13:20.036Z,33.62
2023-04-21T05:14:20.347Z,33.63
2023-04-21T05:15:20.058Z,33.63
2023-04-21T05:16:20.053Z,33.61
2023-04-21T05:17:20.090Z,33.62
2023-04-21T05:18:20.057Z,33.62
2023-04-21T05:19:20.050Z,33.62
2023-04-21T05:20:20.213Z,33.63
2023-04-21T05:21:20.180Z,33.60
2023-04-21T05:22:20.026Z,33.54
2023-04-21T05:23:20.036Z,33.53
2023-04-21T05:24:20.259Z,33.52
2023-04-21T05:25:20.034Z,33.49
2023-04-21T05:26:20.041Z,33.50
2023-04-21T05:27:20.205Z,33.48
2023-04-21T05:28:20.003Z,33.51
2023-04-21T05:29:19.988Z,33.48
2023-04-21T05:30:19.991Z,33.49
2023-04-21T05:31:19.988Z,33.49
2023-04-21T05:32:20.456Z,33.51
2023-04-21T05:33:20.135Z,33.49
2023-04-21T05:34:20.239Z,33.52
2023-04-21T05:35:20.053Z,33.50
2023-04-21T05:36:20.073Z,33.49
2023-04-21T05:37:20.058Z,33.50
2023-04-21T05:38:20.205Z,33.50
2023-04-21T05:39:20.044Z,33.49
2023-04-21T05:40:20.025Z,33.50
2023-04-21T05:41:20.040Z,33.51
2023-04-21T05:42:20.188Z,33.51
2023-04-21T05:43:20.019Z,33.52
2023-04-21T05:44:20.185Z,33.52
2023-04-21T05:45:20.038Z,33.52
2023-04-21T05:46:20.086Z,33.50
2023-04-21T05:47:20.228Z,33.51
2023-04-21T05:48:20.198Z,33.59
2023-04-21T05:49:20.084Z,33.64
2023-04-21T05:50:20.202Z,33.67
2023-04-21T05:51:20.076Z,33.69
2023-04-21T05:52:20.044Z,33.75
2023-04-21T05:53:23.268Z,33.89
2023-04-21T05:54:20.282Z,33.95
2023-04-21T05:55:20.212Z,33.99
2023-04-21T05:56:20.032Z,34.02
2023-04-21T05:57:23.211Z,33.92
2023-04-21T05:58:20.001Z,32.99
2023-04-21T05:59:20.196Z,32.62
2023-04-21T06:00:20.015Z,32.88
2023-04-21T06:01:35.599Z,33.02
2023-04-21T06:02:27.521Z,33.01
2023-04-21T06:03:20.141Z,33.04
2023-04-21T06:04:20.886Z,33.20
2023-04-21T06:05:19.997Z,33.01
2023-04-21T06:06:23.400Z,33.18
2023-04-21T06:07:19.965Z,33.39
2023-04-21T06:08:19.948Z,33.69
2023-04-21T06:09:19.937Z,34.40
2023-04-21T06:10:19.936Z,34.38
2023-04-21T06:11:20.203Z,34.28
2023-04-21T06:12:20.221Z,34.22
2023-04-21T06:13:19.940Z,34.33
2023-04-21T06:14:20.169Z,34.70
2023-04-21T06:15:19.917Z,34.72
2023-04-21T06:16:20.261Z,34.81
2023-04-21T06:17:20.199Z,35.08
2023-04-21T06:18:19.920Z,35.07
2023-04-21T06:19:19.910Z,35.05
2023-04-21T06:20:19.899Z,35.10
2023-04-21T06:21:20.526Z,35.12
2023-04-21T06:22:20.200Z,35.21
2023-04-21T06:23:19.866Z,35.30
2023-04-21T06:24:20.113Z,35.35
2023-04-21T06:25:19.815Z,35.44
2023-04-21T06:26:19.800Z,35.63
2023-04-21T06:27:19.784Z,35.65
2023-04-21T06:28:19.761Z,35.70
2023-04-21T06:29:19.771Z,35.78
2023-04-21T06:30:19.729Z,35.90
2023-04-21T06:31:19.793Z,36.17
2023-04-21T06:32:20.263Z,36.14
2023-04-21T06:33:19.705Z,36.19
2023-04-21T06:34:20.089Z,36.45
2023-04-21T06:35:19.782Z,36.47
2023-04-21T06:36:19.820Z,36.52
2023-04-21T06:37:20.231Z,36.54
2023-04-21T06:38:19.913Z,36.58
2023-04-21T06:39:19.921Z,36.62
2023-04-21T06:40:19.954Z,36.59
2023-04-21T06:41:19.977Z,36.62
2023-04-21T06:42:20.224Z,36.68
2023-04-21T06:43:21.014Z,36.84
2023-04-21T06:44:20.257Z,36.83
2023-04-21T06:45:20.278Z,37.04
2023-04-21T06:46:20.282Z,37.07
2023-04-21T06:47:20.556Z,37.19
2023-04-21T06:48:20.129Z,37.22
2023-04-21T06:49:20.826Z,37.42
2023-04-21T06:50:20.426Z,37.35
2023-04-21T06:51:20.622Z,35.75
2023-04-21T06:52:20.352Z,34.11
2023-04-21T06:53:20.280Z,33.44
2023-04-21T06:54:20.274Z,33.30
2023-04-21T06:55:20.257Z,33.47
2023-04-21T06:56:20.272Z,33.83
2023-04-21T06:57:20.734Z,34.34
2023-04-21T06:58:21.366Z,34.71
2023-04-21T06:59:20.652Z,35.22
2023-04-21T07:00:20.345Z,35.44
2023-04-21T07:01:20.383Z,35.86
2023-04-21T07:02:20.936Z,35.92
2023-04-21T07:03:20.409Z,35.97
2023-04-21T07:04:20.452Z,35.99
2023-04-21T07:05:20.421Z,36.04
2023-04-21T07:06:20.459Z,36.07
2023-04-21T07:07:20.499Z,36.09
2023-04-21T07:08:20.721Z,36.12
2023-04-21T07:09:20.803Z,36.23
2023-04-21T07:10:20.630Z,36.24
2023-04-21T07:11:20.677Z,36.33
2023-04-21T07:12:20.737Z,36.28
2023-04-21T07:13:20.761Z,36.17
2023-04-21T07:14:20.813Z,36.30
2023-04-21T07:15:20.829Z,36.40
2023-04-21T07:16:20.884Z,36.46
2023-04-21T07:17:21.230Z,36.50
2023-04-21T07:18:20.916Z,36.52
2023-04-21T07:19:21.132Z,36.48
2023-04-21T07:20:20.980Z,36.57
2023-04-21T07:21:21.011Z,36.57
2023-04-21T07:22:21.232Z,36.57
2023-04-21T07:23:21.067Z,36.63
2023-04-21T07:24:21.162Z,36.85
2023-04-21T07:25:21.251Z,36.88
2023-04-21T07:26:21.103Z,37.01
2023-04-21T07:27:21.237Z,37.14
2023-04-21T07:28:21.171Z,37.13
2023-04-21T07:29:21.339Z,37.36
2023-04-21T07:30:21.232Z,37.30
2023-04-21T07:31:21.232Z,37.24
2023-04-21T07:32:21.307Z,37.14
2023-04-21T07:33:21.302Z,37.02
2023-04-21T07:34:21.310Z,36.93
2023-04-21T07:35:21.754Z,36.93
2023-04-21T07:36:21.379Z,36.35
2023-04-21T07:37:21.404Z,35.74
2023-04-21T07:38:21.456Z,35.55
2023-04-21T07:39:22.517Z,35.91
2023-04-21T07:40:21.927Z,36.42
2023-04-21T07:41:23.053Z,36.70
2023-04-21T07:42:22.257Z,36.71
2023-04-21T07:43:22.225Z,36.82
2023-04-21T07:44:22.266Z,36.64
2023-04-21T07:45:22.152Z,36.59
2023-04-21T07:46:22.368Z,36.57
2023-04-21T07:47:22.631Z,36.72
2023-04-21T07:48:23.173Z,36.62
2023-04-21T07:49:22.633Z,36.63
2023-04-21T07:50:22.279Z,36.62
2023-04-21T07:51:22.421Z,36.78
2023-04-21T07:52:22.515Z,36.79
2023-04-21T07:53:22.272Z,36.81
2023-04-21T07:54:22.635Z,36.84
2023-04-21T07:55:22.422Z,35.81
2023-04-21T07:56:22.594Z,34.35
2023-04-21T07:57:22.794Z,34.80
2023-04-21T07:58:22.654Z,33.83
2023-04-21T07:59:22.595Z,34.69
2023-04-21T08:00:22.698Z,34.41
2023-04-21T08:01:22.538Z,34.58
2023-04-21T08:02:23.022Z,35.34
2023-04-21T08:03:24.616Z,34.89
2023-04-21T08:04:22.864Z,35.55
2023-04-21T08:05:22.645Z,35.92
2023-04-21T08:06:22.549Z,35.38
2023-04-21T08:07:22.925Z,35.43
2023-04-21T08:08:22.581Z,35.58
2023-04-21T08:09:22.820Z,35.33
2023-04-21T08:10:22.493Z,35.45
2023-04-21T08:11:22.566Z,35.38
2023-04-21T08:12:22.459Z,35.50
2023-04-21T08:13:22.542Z,35.13
2023-04-21T08:14:22.530Z,34.77
2023-04-21T08:15:22.557Z,34.71
2023-04-21T08:16:22.479Z,35.02
2023-04-21T08:17:22.497Z,34.62
2023-04-21T08:18:22.883Z,34.67
2023-04-21T08:19:22.681Z,34.90
2023-04-21T08:20:23.110Z,34.69
2023-04-21T08:21:22.541Z,34.74
2023-04-21T08:22:22.409Z,34.32
2023-04-21T08:23:22.469Z,34.33
2023-04-21T08:24:22.815Z,34.46
2023-04-21T08:25:23.077Z,33.69
2023-04-21T08:26:22.482Z,33.77
2023-04-21T08:27:22.603Z,33.63
2023-04-21T08:28:22.584Z,34.29
2023-04-21T08:29:23.366Z,34.30
2023-04-21T08:30:22.667Z,34.39
2023-04-21T08:31:23.899Z,34.38
2023-04-21T08:32:23.817Z,34.75
2023-04-21T08:33:22.961Z,34.65
2023-04-21T08:34:25.730Z,34.58
2023-04-21T08:35:22.964Z,34.58
2023-04-21T08:36:29.379Z,34.66
2023-04-21T08:37:23.455Z,34.65
2023-04-21T08:38:23.073Z,34.78
2023-04-21T08:39:23.025Z,34.88
2023-04-21T08:40:23.088Z,34.92
2023-04-21T08:41:23.022Z,34.43
2023-04-21T08:42:23.394Z,34.84
2023-04-21T08:43:23.101Z,35.16
2023-04-21T08:44:23.456Z,35.08
2023-04-21T08:45:30.601Z,35.11
2023-04-21T08:46:23.731Z,35.22
2023-04-21T08:47:39.275Z,35.33
2023-04-21T08:48:22.932Z,35.39
2023-04-21T08:49:23.460Z,35.40
2023-04-21T08:50:23.108Z,35.45
2023-04-21T08:51:22.813Z,35.45
2023-04-21T08:52:22.764Z,35.53
2023-04-21T08:53:22.709Z,35.53
2023-04-21T08:54:22.692Z,35.53
2023-04-21T08:55:22.670Z,35.64
2023-04-21T08:56:22.658Z,35.65
2023-04-21T08:57:22.765Z,35.70
2023-04-21T08:58:22.645Z,35.84
2023-04-21T08:59:22.713Z,35.82
2023-04-21T09:00:22.641Z,35.83
2023-04-21T09:01:22.867Z,35.94
2023-04-21T09:02:22.910Z,36.10
2023-04-21T09:03:25.852Z,36.11
2023-04-21T09:04:22.750Z,36.51
2023-04-21T09:05:22.984Z,36.43
2023-04-21T09:06:22.802Z,36.70
2023-04-21T09:07:22.508Z,36.61
2023-04-21T09:08:22.483Z,36.72
2023-04-21T09:09:22.466Z,36.77
2023-04-21T09:10:22.776Z,36.78
2023-04-21T09:11:22.452Z,36.80
2023-04-21T09:12:22.424Z,37.11
2023-04-21T09:13:22.404Z,37.04
2023-04-21T09:14:22.390Z,37.69
2023-04-21T09:15:22.384Z,37.49
2023-04-21T09:16:22.867Z,37.47
2023-04-21T09:17:22.816Z,37.69
2023-04-21T09:18:22.544Z,37.65
2023-04-21T09:19:22.514Z,37.67
2023-04-21T09:20:22.844Z,37.60
2023-04-21T09:21:22.779Z,37.64
2023-04-21T09:22:22.284Z,37.73
2023-04-21T09:23:22.784Z,37.92
2023-04-21T09:24:22.300Z,37.90
2023-04-21T09:25:22.334Z,38.00
2023-04-21T09:26:22.320Z,37.99
2023-04-21T09:27:22.779Z,38.10
2023-04-21T09:28:22.345Z,38.24
2023-04-21T09:29:22.799Z,38.33
2023-04-21T09:30:22.340Z,38.38
2023-04-21T09:31:22.368Z,38.41
2023-04-21T09:32:22.474Z,38.52
2023-04-21T09:33:29.632Z,38.53
2023-04-21T09:34:22.833Z,38.38
2023-04-21T09:35:22.310Z,38.29
2023-04-21T09:36:22.278Z,38.11
2023-04-21T09:37:22.289Z,38.47
2023-04-21T09:38:22.269Z,38.41
2023-04-21T09:39:38.342Z,38.23
2023-04-21T09:40:22.252Z,37.23
2023-04-21T09:41:22.309Z,37.87
2023-04-21T09:42:22.285Z,35.66
2023-04-21T09:43:22.186Z,36.70
2023-04-21T09:44:23.459Z,37.57
2023-04-21T09:46:21.371Z,37.96
2023-04-21T09:47:22.325Z,37.79
2023-04-21T09:48:22.618Z,37.53
2023-04-21T09:49:22.253Z,37.62
2023-04-21T09:50:39.350Z,38.65
2023-04-21T09:51:35.181Z,38.42
2023-04-21T09:52:22.290Z,38.34
2023-04-21T09:53:22.163Z,38.31
2023-04-21T09:54:29.667Z,38.62
2023-04-21T09:55:22.129Z,38.37
2023-04-21T09:56:22.114Z,38.27
2023-04-21T09:57:22.088Z,38.35
2023-04-21T09:58:22.072Z,38.54
2023-04-21T09:59:23.654Z,38.46
2023-04-21T10:00:22.274Z,38.50
2023-04-21T10:01:22.298Z,38.65
2023-04-21T10:02:22.400Z,38.65
2023-04-21T10:03:22.431Z,38.77
2023-04-21T10:04:22.975Z,38.90
2023-04-21T10:05:22.289Z,39.01
2023-04-21T10:06:22.224Z,39.06
2023-04-21T10:07:22.200Z,39.13
2023-04-21T10:08:22.397Z,39.23
2023-04-21T10:09:22.192Z,39.41
2023-04-21T10:10:22.170Z,39.47
2023-04-21T10:11:22.163Z,39.58
2023-04-21T10:12:22.163Z,39.66
2023-04-21T10:13:22.152Z,39.68
2023-04-21T10:14:22.632Z,39.74
2023-04-21T10:15:22.137Z,39.89
2023-04-21T10:16:22.165Z,40.09
2023-04-21T10:17:22.348Z,40.10
2023-04-21T10:18:22.117Z,40.22
2023-04-21T10:19:22.302Z,40.39
2023-04-21T10:20:22.302Z,40.42
2023-04-21T10:21:22.294Z,40.56
2023-04-21T10:22:22.365Z,40.63
2023-04-21T10:23:22.303Z,40.71
2023-04-21T10:24:22.946Z,40.91
2023-04-21T10:25:22.064Z,40.99
2023-04-21T10:26:22.064Z,41.18
2023-04-21T10:27:22.065Z,41.26
2023-04-21T10:28:22.311Z,41.28
2023-04-21T10:29:22.057Z,41.39
2023-04-21T10:30:22.070Z,38.70
2023-04-21T10:31:22.151Z,39.82
2023-04-21T10:32:22.144Z,39.54
2023-04-21T10:33:22.133Z,39.99
2023-04-21T10:34:22.347Z,40.33
2023-04-21T10:35:22.191Z,40.12
2023-04-21T10:36:22.216Z,40.19
2023-04-21T10:37:22.380Z,40.12
2023-04-21T10:38:22.266Z,40.18
2023-04-21T10:39:22.287Z,40.18
2023-04-21T10:40:27.564Z,40.16
2023-04-21T10:41:22.287Z,40.23
2023-04-21T10:42:22.245Z,40.24
2023-04-21T10:43:22.329Z,40.27
2023-04-21T10:44:22.484Z,40.38
2023-04-21T10:45:22.216Z,40.46
2023-04-21T10:46:22.232Z,40.49
2023-04-21T10:47:22.240Z,40.57
2023-04-21T10:48:22.151Z,40.61
2023-04-21T10:49:22.141Z,40.65
2023-04-21T10:50:22.095Z,40.77
2023-04-21T10:51:22.066Z,40.87
2023-04-21T10:52:22.040Z,40.93
2023-04-21T10:53:22.054Z,40.97
2023-04-21T10:54:22.183Z,41.02
2023-04-21T10:55:21.976Z,41.05
2023-04-21T10:56:21.954Z,41.24
2023-04-21T10:57:21.952Z,41.28
2023-04-21T10:58:21.936Z,41.44
2023-04-21T10:59:21.894Z,41.52
2023-04-21T11:00:21.893Z,40.84
2023-04-21T11:01:21.934Z,35.09
2023-04-21T11:02:21.985Z,34.95
2023-04-21T11:03:22.537Z,34.32
2023-04-21T11:04:22.822Z,33.75
2023-04-21T11:05:22.057Z,33.74
2023-04-21T11:06:22.134Z,34.75
2023-04-21T11:07:22.232Z,34.73
2023-04-21T11:08:22.294Z,34.89
2023-04-21T11:09:22.866Z,34.99
2023-04-21T11:10:22.412Z,34.76
2023-04-21T11:11:22.460Z,34.84
2023-04-21T11:12:23.531Z,34.93
2023-04-21T11:13:22.592Z,35.01
2023-04-21T11:14:22.833Z,34.94
2023-04-21T11:15:22.720Z,34.80
2023-04-21T11:16:22.851Z,34.59
2023-04-21T11:17:22.879Z,34.68
2023-04-21T11:18:23.325Z,34.68
2023-04-21T11:19:22.920Z,34.57
2023-04-21T11:20:23.336Z,34.57
2023-04-21T11:21:22.974Z,34.56
2023-04-21T11:22:23.006Z,34.49
2023-04-21T11:23:23.333Z,34.81
2023-04-21T11:24:23.033Z,34.64
2023-04-21T11:25:23.039Z,34.69
2023-04-21T11:26:23.061Z,34.91
2023-04-21T11:27:23.037Z,35.21
2023-04-21T11:28:23.089Z,35.46
2023-04-21T11:29:23.148Z,35.26
2023-04-21T11:30:23.196Z,35.38
2023-04-21T11:31:23.269Z,35.49
2023-04-21T11:32:23.319Z,35.53
2023-04-21T11:33:23.836Z,35.21
2023-04-21T11:34:24.319Z,35.65
2023-04-21T11:35:23.471Z,35.74
2023-04-21T11:36:23.499Z,35.80
2023-04-21T11:37:23.844Z,35.83
2023-04-21T11:38:23.593Z,35.43
2023-04-21T11:39:23.631Z,35.79
2023-04-21T11:40:23.657Z,35.82
2023-04-21T11:41:23.734Z,35.90
2023-04-21T11:42:23.726Z,35.89
2023-04-21T11:43:23.753Z,35.61
2023-04-21T11:44:23.793Z,35.73
2023-04-21T11:45:23.824Z,35.82
2023-04-21T11:46:23.934Z,35.47
2023-04-21T11:47:23.922Z,35.70
2023-04-21T11:48:23.933Z,35.70
2023-04-21T11:49:23.949Z,35.68
2023-04-21T11:50:23.972Z,35.60
2023-04-21T11:51:23.992Z,35.41
2023-04-21T11:52:24.027Z,35.53
2023-04-21T11:53:24.362Z,35.52
2023-04-21T11:54:24.082Z,35.16
2023-04-21T11:55:24.079Z,35.14
2023-04-21T11:56:24.120Z,35.24
2023-04-21T11:57:24.157Z,35.19
2023-04-21T11:58:24.174Z,35.30
2023-04-21T11:59:25.766Z,35.32
2023-04-21T12:00:24.155Z,35.34
2023-04-21T12:01:24.127Z,35.45
2023-04-21T12:02:24.305Z,35.47
2023-04-21T12:03:24.282Z,35.47
2023-04-21T12:04:24.254Z,35.60
2023-04-21T12:05:24.086Z,35.63
2023-04-21T12:06:24.171Z,35.78
2023-04-21T12:07:24.014Z,35.88
2023-04-21T12:08:23.975Z,35.99
2023-04-21T12:09:23.947Z,36.02
2023-04-21T12:10:23.919Z,36.08
2023-04-21T12:11:23.907Z,36.16
2023-04-21T12:12:23.896Z,36.19
2023-04-21T12:13:23.920Z,36.30
2023-04-21T12:14:24.228Z,36.37
2023-04-21T12:15:23.845Z,36.41
2023-04-21T12:16:23.849Z,36.41
2023-04-21T12:17:23.806Z,36.50
2023-04-21T12:18:23.776Z,36.55
2023-04-21T12:19:23.780Z,36.61
2023-04-21T12:20:23.782Z,36.72
2023-04-21T12:21:23.741Z,36.80
2023-04-21T12:22:23.727Z,36.85
2023-04-21T12:23:23.713Z,36.92
2023-04-21T12:24:23.696Z,36.90
2023-04-21T12:25:23.678Z,37.02
2023-04-21T12:26:23.657Z,37.14
2023-04-21T12:27:23.653Z,37.20
2023-04-21T12:28:23.609Z,37.27
2023-04-21T12:29:23.638Z,37.29
2023-04-21T12:30:23.596Z,37.38
2023-04-21T12:31:23.594Z,37.47
2023-04-21T12:32:23.511Z,37.57
2023-04-21T12:33:23.632Z,37.67
2023-04-21T12:34:23.469Z,37.75
2023-04-21T12:35:24.052Z,37.78
2023-04-21T12:36:23.408Z,37.88
2023-04-21T12:37:23.393Z,37.91
2023-04-21T12:38:23.368Z,37.92
2023-04-21T12:39:23.336Z,37.94
2023-04-21T12:40:23.327Z,37.98
2023-04-21T12:41:23.297Z,38.06
2023-04-21T12:42:23.274Z,38.13
2023-04-21T12:43:23.255Z,38.14
2023-04-21T12:44:23.216Z,38.21
2023-04-21T12:45:23.233Z,38.30
2023-04-21T12:46:23.197Z,38.38
2023-04-21T12:47:23.164Z,38.37
2023-04-21T12:48:23.106Z,38.45
2023-04-21T12:49:23.066Z,38.48
2023-04-21T12:50:23.042Z,38.52
2023-04-21T12:51:23.023Z,38.60
2023-04-21T12:52:22.996Z,38.68
2023-04-21T12:53:23.360Z,38.72